createdAt,value
2022-11-05T00:00:36.929Z,27.77
2022-11-05T00:03:23.054Z,31.13
2022-11-05T00:06:12.342Z,25.43
2022-11-05T00:09:13.685Z,35.53
2022-11-05T00:11:59.220Z,28.10
2022-11-05T00:14:44.651Z,30.30
2022-11-05T00:17:11.414Z,34.80
2022-11-05T00:19:38.122Z,49.27
2022-11-05T00:22:23.867Z,30.70
2022-11-05T00:25:09.216Z,33.70
2022-11-05T00:27:36.014Z,27.70
2022-11-05T00:30:02.838Z,22.33
2022-11-05T00:32:29.651Z,26.40
2022-11-05T00:34:56.462Z,21.63
2022-11-05T00:37:23.155Z,24.77
2022-11-05T00:39:49.881Z,20.67
2022-11-05T00:42:35.155Z,35.20
2022-11-05T00:45:02.094Z,21.23
2022-11-05T00:47:49.599Z,24.27
2022-11-05T00:50:16.476Z,37.67
2022-11-05T00:52:55.664Z,24.00
2022-11-05T00:55:40.709Z,49.73
2022-11-05T00:58:13.094Z,50.80
2022-11-05T01:00:42.273Z,39.27
2022-11-05T01:03:14.770Z,36.67
2022-11-05T01:05:45.097Z,60.23
2022-11-05T01:08:13.326Z,64.28
2022-11-05T01:10:41.799Z,112.97
2022-11-05T01:13:12.911Z,133.83
2022-11-05T01:15:40.765Z,46.73
2022-11-05T01:18:07.786Z,99.83
2022-11-05T01:20:34.584Z,139.80
2022-11-05T01:23:01.377Z,133.50
2022-11-05T01:25:28.307Z,100.33
2022-11-05T01:27:55.307Z,76.10
2022-11-05T01:30:22.706Z,54.30
2022-11-05T01:32:49.864Z,78.70
2022-11-05T01:35:17.715Z,28.27
2022-11-05T01:37:44.488Z,24.13
2022-11-05T01:40:15.246Z,102.80
2022-11-05T01:42:42.281Z,52.23
2022-11-05T01:45:12.877Z,44.77
2022-11-05T01:47:43.283Z,20.00
2022-11-05T01:50:35.740Z,55.20
2022-11-05T01:53:24.957Z,27.27
2022-11-05T01:56:15.014Z,23.83
2022-11-05T01:58:57.304Z,22.00
2022-11-05T02:01:24.729Z,28.87
2022-11-05T02:03:55.491Z,22.87
2022-11-05T02:06:22.410Z,21.50
2022-11-05T02:08:58.670Z,25.03
2022-11-05T02:11:25.509Z,19.93
2022-11-05T02:13:52.574Z,68.33
2022-11-05T02:16:53.055Z,25.63
2022-11-05T02:19:38.238Z,21.80
2022-11-05T02:22:26.203Z,23.73
2022-11-05T02:25:11.087Z,27.73
2022-11-05T02:28:04.054Z,21.33
2022-11-05T02:30:42.757Z,18.67
2022-11-05T02:33:27.505Z,22.30
2022-11-05T02:36:19.770Z,22.90
2022-11-05T02:39:16.668Z,16.57
2022-11-05T02:42:11.670Z,18.47
2022-11-05T02:44:47.666Z,17.57
2022-11-05T02:47:29.634Z,15.47
2022-11-05T02:50:21.324Z,19.67
2022-11-05T02:53:25.269Z,19.20
2022-11-05T02:55:59.728Z,7.97
2022-11-05T02:58:30.657Z,21.00
2022-11-05T03:00:58.383Z,20.20
2022-11-05T03:03:31.484Z,19.27
2022-11-05T03:06:35.613Z,18.93
2022-11-05T03:09:26.782Z,22.73
2022-11-05T03:12:16.366Z,26.93
2022-11-05T03:15:14.124Z,21.90
2022-11-05T03:17:59.634Z,26.43
2022-11-05T03:20:36.181Z,19.83
2022-11-05T03:23:22.135Z,26.20
2022-11-05T03:25:53.776Z,18.03
2022-11-05T03:28:24.533Z,17.00
2022-11-05T03:30:55.271Z,18.80
2022-11-05T03:33:26.750Z,14.43
2022-11-05T03:36:05.348Z,26.00
2022-11-05T03:38:37.639Z,15.63
2022-11-05T03:41:09.083Z,12.90
2022-11-05T03:43:40.835Z,13.70
2022-11-05T03:46:19.600Z,14.37
2022-11-05T03:48:50.630Z,20.90
2022-11-05T03:51:28.910Z,19.93
2022-11-05T03:53:58.016Z,17.63
2022-11-05T03:56:37.807Z,20.13
2022-11-05T03:59:06.483Z,21.80
2022-11-05T04:01:33.719Z,19.30
2022-11-05T04:04:00.593Z,17.53
2022-11-05T04:06:45.970Z,18.83
2022-11-05T04:09:31.473Z,13.97
2022-11-05T04:12:16.974Z,14.77
2022-11-05T04:14:43.767Z,20.43
2022-11-05T04:17:10.533Z,25.03
2022-11-05T04:19:57.028Z,14.50
2022-11-05T04:22:43.585Z,14.43
2022-11-05T04:25:10.539Z,12.57
2022-11-05T04:27:37.506Z,13.43
2022-11-05T04:30:20.943Z,11.50
2022-11-05T04:33:07.554Z,14.90
2022-11-05T04:35:36.294Z,8.43
2022-11-05T04:38:08.203Z,14.33
2022-11-05T04:40:35.261Z,12.13
2022-11-05T04:43:02.618Z,14.87
2022-11-05T04:45:31.739Z,12.23
2022-11-05T04:47:59.583Z,19.47
2022-11-05T04:50:26.678Z,13.77
2022-11-05T04:52:53.479Z,17.07
2022-11-05T04:55:20.489Z,17.83
2022-11-05T04:57:49.725Z,13.57
2022-11-05T05:00:17.451Z,13.03
2022-11-05T05:02:44.805Z,15.87
2022-11-05T05:05:11.878Z,14.33
2022-11-05T05:07:38.605Z,10.77
2022-11-05T05:10:07.356Z,15.63
2022-11-05T05:12:35.234Z,7.97
2022-11-05T05:15:02.228Z,12.97
2022-11-05T05:17:28.997Z,15.23
2022-11-05T05:20:14.477Z,17.23
2022-11-05T05:22:41.196Z,16.00
2022-11-05T05:25:08.250Z,16.53
2022-11-05T05:27:35.119Z,16.90
2022-11-05T05:30:02.094Z,12.33
2022-11-05T05:32:28.814Z,9.63
2022-11-05T05:34:55.689Z,16.13
2022-11-05T05:37:22.395Z,9.20
2022-11-05T05:39:49.873Z,10.23
2022-11-05T05:42:16.786Z,9.17
2022-11-05T05:44:43.547Z,13.80
2022-11-05T05:47:10.258Z,11.63
2022-11-05T05:49:37.085Z,16.10
2022-11-05T05:52:03.963Z,13.43
2022-11-05T05:54:33.524Z,10.43
2022-11-05T05:57:02.029Z,10.83
2022-11-05T05:59:28.766Z,11.93
2022-11-05T06:01:55.619Z,10.67
2022-11-05T06:04:22.622Z,10.27
2022-11-05T06:06:49.314Z,10.60
2022-11-05T06:09:16.313Z,5.57
2022-11-05T06:11:43.096Z,9.13
2022-11-05T06:14:11.736Z,7.13
2022-11-05T06:16:40.063Z,8.70
2022-11-05T06:19:08.112Z,13.80
2022-11-05T06:21:35.146Z,9.50
2022-11-05T06:24:02.916Z,13.07
2022-11-05T06:26:30.462Z,9.67
2022-11-05T06:28:57.438Z,7.60
2022-11-05T06:31:24.652Z,23.57
2022-11-05T06:33:51.693Z,12.50
2022-11-05T06:36:19.511Z,17.70
2022-11-05T06:38:46.313Z,15.50
2022-11-05T06:41:13.309Z,17.87
2022-11-05T06:43:40.409Z,17.57
2022-11-05T06:46:07.342Z,16.00
2022-11-05T06:48:34.637Z,14.40
2022-11-05T06:51:01.380Z,16.40
2022-11-05T06:53:28.548Z,15.40
2022-11-05T06:55:55.400Z,16.20
2022-11-05T06:58:22.262Z,14.70
2022-11-05T07:00:49.499Z,8.13
2022-11-05T07:03:16.303Z,4.87
2022-11-05T07:05:46.482Z,5.77
2022-11-05T07:08:13.516Z,6.38
2022-11-05T07:10:40.376Z,7.53
2022-11-05T07:13:08.723Z,5.40
2022-11-05T07:15:37.041Z,13.03
2022-11-05T07:18:07.527Z,7.33
2022-11-05T07:20:34.799Z,8.93
2022-11-05T07:23:13.169Z,5.33
2022-11-05T07:25:41.401Z,5.00
2022-11-05T07:28:09.546Z,9.23
2022-11-05T07:30:37.061Z,10.83
2022-11-05T07:33:03.910Z,8.93
2022-11-05T07:35:30.698Z,11.43
2022-11-05T07:37:57.851Z,8.60
2022-11-05T07:40:26.239Z,10.67
2022-11-05T07:42:55.592Z,11.53
2022-11-05T07:45:23.232Z,13.37
2022-11-05T07:47:58.663Z,9.70
2022-11-05T07:50:27.778Z,11.07
2022-11-05T07:52:59.264Z,17.27
2022-11-05T07:55:25.962Z,20.00
2022-11-05T07:57:52.724Z,15.20
2022-11-05T08:00:24.095Z,11.67
2022-11-05T08:03:14.232Z,13.83
2022-11-05T08:05:44.766Z,8.80
2022-11-05T08:08:13.854Z,11.67
2022-11-05T08:10:41.230Z,12.70
2022-11-05T08:13:08.560Z,13.20
2022-11-05T08:15:36.409Z,9.70
2022-11-05T08:18:05.893Z,15.43
2022-11-05T08:20:33.330Z,9.77
2022-11-05T08:23:00.297Z,13.40
2022-11-05T08:25:27.488Z,16.20
2022-11-05T08:28:08.663Z,11.73
2022-11-05T08:30:35.908Z,9.73
2022-11-05T08:33:05.761Z,15.20
2022-11-05T08:35:35.618Z,15.10
2022-11-05T08:38:04.290Z,15.10
2022-11-05T08:40:33.335Z,8.20
2022-11-05T08:43:02.798Z,13.35
2022-11-05T08:45:30.009Z,9.02
2022-11-05T08:48:16.801Z,9.02
2022-11-05T08:50:45.878Z,9.55
2022-11-05T08:53:13.712Z,8.43
2022-11-05T08:55:40.801Z,13.40
2022-11-05T08:58:12.683Z,7.80
2022-11-05T09:00:40.302Z,9.45
2022-11-05T09:03:08.883Z,11.55
2022-11-05T09:05:40.559Z,10.00
2022-11-05T09:08:09.355Z,7.95
2022-11-05T09:10:37.324Z,7.63
2022-11-05T09:13:04.580Z,7.53
2022-11-05T09:15:32.192Z,9.73
2022-11-05T09:17:59.909Z,12.35
2022-11-05T09:20:26.660Z,8.63
2022-11-05T09:22:53.731Z,8.23
2022-11-05T09:25:20.733Z,7.30
2022-11-05T09:27:47.435Z,13.52
2022-11-05T09:30:14.605Z,9.52
2022-11-05T09:32:42.004Z,10.23
2022-11-05T09:35:10.562Z,15.20
2022-11-05T09:37:37.467Z,14.80
2022-11-05T09:40:05.232Z,11.70
2022-11-05T09:42:39.662Z,11.60
2022-11-05T09:45:17.081Z,8.45
2022-11-05T09:47:49.206Z,9.80
2022-11-05T09:50:20.478Z,7.53
2022-11-05T09:52:47.331Z,8.60
2022-11-05T09:55:31.980Z,11.43
2022-11-05T09:58:03.301Z,12.02
2022-11-05T10:00:32.759Z,7.85
2022-11-05T10:03:11.839Z,8.05
2022-11-05T10:05:40.751Z,11.07
2022-11-05T10:08:24.245Z,8.25
2022-11-05T10:10:53.710Z,6.72
2022-11-05T10:13:44.476Z,6.30
2022-11-05T10:16:20.174Z,9.73
2022-11-05T10:18:54.311Z,11.05
2022-11-05T10:21:44.327Z,6.18
2022-11-05T10:24:20.763Z,11.95
2022-11-05T10:26:53.432Z,7.25
2022-11-05T10:29:29.952Z,7.25
2022-11-05T10:31:59.225Z,8.95
2022-11-05T10:34:30.457Z,9.68
2022-11-05T10:36:57.335Z,6.75
2022-11-05T10:39:27.813Z,10.25
2022-11-05T10:42:19.481Z,10.30
2022-11-05T10:45:15.991Z,10.20
2022-11-05T10:47:57.575Z,15.60
2022-11-05T10:50:29.806Z,12.32
2022-11-05T10:53:12.074Z,9.85
2022-11-05T10:55:44.478Z,11.07
2022-11-05T10:58:17.374Z,9.93
2022-11-05T11:00:59.935Z,15.32
2022-11-05T11:03:35.540Z,12.65
2022-11-05T11:06:07.859Z,12.18
2022-11-05T11:08:36.817Z,12.43
2022-11-05T11:11:07.976Z,10.13
2022-11-05T11:13:58.944Z,10.60
2022-11-05T11:16:28.316Z,12.77
2022-11-05T11:19:01.653Z,10.25
2022-11-05T11:21:30.446Z,10.10
2022-11-05T11:23:59.586Z,10.93
2022-11-05T11:26:36.402Z,13.07
2022-11-05T11:29:15.836Z,11.25
2022-11-05T11:31:42.949Z,10.30
2022-11-05T11:34:18.819Z,13.93
2022-11-05T11:36:53.820Z,13.68
2022-11-05T11:39:26.666Z,14.90
2022-11-05T11:41:57.933Z,14.13
2022-11-05T11:44:30.340Z,10.63
2022-11-05T11:47:03.327Z,10.65
2022-11-05T11:49:38.834Z,10.45
2022-11-05T11:52:14.418Z,10.57
2022-11-05T11:54:41.223Z,10.32
2022-11-05T11:57:29.420Z,9.85
2022-11-05T12:00:13.448Z,9.43
2022-11-05T12:02:56.009Z,10.55
2022-11-05T12:05:54.153Z,9.18
2022-11-05T12:08:45.971Z,8.52
2022-11-05T12:11:42.345Z,10.15
2022-11-05T12:14:14.047Z,11.48
2022-11-05T12:16:40.856Z,13.10
2022-11-05T12:19:32.325Z,9.32
2022-11-05T12:21:58.969Z,12.88
2022-11-05T12:24:50.713Z,16.85
2022-11-05T12:27:17.341Z,9.85
2022-11-05T12:30:00.234Z,10.93
2022-11-05T12:32:57.941Z,12.80
2022-11-05T12:36:00.499Z,18.00
2022-11-05T12:38:42.132Z,16.77
2022-11-05T12:41:31.288Z,18.98
2022-11-05T12:44:25.016Z,14.68
2022-11-05T12:47:14.881Z,14.32
2022-11-05T12:49:58.146Z,19.50
2022-11-05T12:52:35.941Z,11.98
2022-11-05T12:55:37.210Z,9.90
2022-11-05T12:58:26.673Z,9.15
2022-11-05T13:01:01.820Z,11.20
2022-11-05T13:03:35.233Z,12.20
2022-11-05T13:06:25.861Z,12.38
2022-11-05T13:09:27.953Z,13.82
2022-11-05T13:12:03.195Z,17.73
2022-11-05T13:14:52.345Z,14.55
2022-11-05T13:17:24.369Z,19.42
2022-11-05T13:20:05.870Z,17.30
2022-11-05T13:22:38.607Z,15.38
2022-11-05T13:25:29.368Z,18.65
2022-11-05T13:28:38.634Z,19.77
2022-11-05T13:31:13.670Z,19.67
2022-11-05T13:33:44.013Z,18.85
2022-11-05T13:36:38.492Z,22.08
2022-11-05T13:39:09.436Z,21.90
2022-11-05T13:42:03.762Z,17.13
2022-11-05T13:44:36.394Z,22.38
2022-11-05T13:47:21.760Z,19.30
2022-11-05T13:50:09.872Z,15.68
2022-11-05T13:53:12.198Z,23.98
2022-11-05T13:55:47.772Z,23.75
2022-11-05T13:58:51.821Z,15.98
2022-11-05T14:01:56.059Z,20.25
2022-11-05T14:04:31.895Z,21.75
2022-11-05T14:07:08.103Z,19.33
2022-11-05T14:09:36.951Z,16.33
2022-11-05T14:12:05.665Z,15.93
2022-11-05T14:14:44.649Z,16.35
2022-11-05T14:17:25.926Z,12.77
2022-11-05T14:20:01.873Z,12.85
2022-11-05T14:22:35.441Z,12.63
2022-11-05T14:25:24.488Z,9.18
2022-11-05T14:27:54.454Z,14.53
2022-11-05T14:33:15.627Z,15.60
2022-11-05T14:35:42.590Z,12.02
2022-11-05T14:38:27.323Z,18.95
2022-11-05T14:41:02.924Z,12.48
2022-11-05T14:43:33.986Z,16.85
2022-11-05T14:46:03.735Z,11.27
2022-11-05T14:48:33.282Z,15.30
2022-11-05T14:51:00.102Z,16.85
2022-11-05T14:53:39.311Z,12.00
2022-11-05T14:56:16.073Z,9.45
2022-11-05T14:58:44.600Z,13.43
2022-11-05T15:01:14.195Z,10.85
2022-11-05T15:03:45.864Z,13.85
2022-11-05T15:06:34.167Z,10.85
2022-11-05T15:09:00.865Z,10.90
2022-11-05T15:11:39.193Z,9.50
2022-11-05T15:14:18.800Z,12.75
2022-11-05T15:16:53.702Z,12.60
2022-11-05T15:19:29.533Z,11.88
2022-11-05T15:21:59.959Z,11.93
2022-11-05T15:24:30.111Z,12.07
2022-11-05T15:27:43.367Z,10.65
2022-11-05T15:30:19.623Z,11.13
2022-11-05T15:32:47.015Z,12.32
2022-11-05T15:35:25.435Z,10.73
2022-11-05T15:37:58.858Z,14.13
2022-11-05T15:40:30.973Z,11.40
2022-11-05T15:43:20.020Z,8.02
2022-11-05T15:46:03.371Z,12.18
2022-11-05T15:48:31.139Z,11.07
2022-11-05T15:50:58.517Z,13.02
2022-11-05T15:54:23.808Z,15.82
2022-11-05T15:56:51.313Z,11.63
2022-11-05T15:59:23.767Z,11.80
2022-11-05T16:01:56.573Z,10.90
2022-11-05T16:04:27.314Z,13.43
2022-11-05T16:07:01.121Z,19.73
2022-11-05T16:09:30.835Z,17.85
2022-11-05T16:12:19.623Z,10.95
2022-11-05T16:15:00.198Z,12.05
2022-11-05T16:17:30.583Z,12.67
2022-11-05T16:19:57.919Z,10.73
2022-11-05T16:22:26.016Z,13.10
2022-11-05T16:24:52.806Z,12.50
2022-11-05T16:27:22.162Z,11.77
2022-11-05T16:29:49.031Z,12.18
2022-11-05T16:32:31.374Z,10.17
2022-11-05T16:35:04.088Z,10.77
2022-11-05T16:37:41.156Z,20.43
2022-11-05T16:40:15.755Z,13.37
2022-11-05T16:42:43.016Z,13.67
2022-11-05T16:45:13.555Z,11.47
2022-11-05T16:47:40.523Z,14.33
2022-11-05T16:50:24.815Z,13.20
2022-11-05T16:52:51.830Z,12.97
2022-11-05T16:55:19.273Z,13.50
2022-11-05T16:57:51.297Z,11.60
2022-11-05T17:00:20.318Z,11.13
2022-11-05T17:02:47.738Z,15.40
2022-11-05T17:05:17.630Z,17.10
2022-11-05T17:07:44.327Z,15.23
2022-11-05T17:10:11.345Z,11.10
2022-11-05T17:12:38.299Z,15.67
2022-11-05T17:15:24.590Z,16.43
2022-11-05T17:17:52.609Z,11.73
2022-11-05T17:20:41.642Z,13.63
2022-11-05T17:23:14.676Z,19.00
2022-11-05T17:25:44.915Z,13.93
2022-11-05T17:28:12.054Z,18.25
2022-11-05T17:30:41.385Z,14.80
2022-11-05T17:33:10.233Z,16.90
2022-11-05T17:35:41.031Z,14.43
2022-11-05T17:38:08.983Z,17.77
2022-11-05T17:40:37.452Z,17.60
2022-11-05T17:43:04.988Z,17.43
2022-11-05T17:45:31.863Z,11.17
2022-11-05T17:47:58.714Z,13.17
2022-11-05T17:50:25.398Z,15.53
2022-11-05T17:52:52.080Z,20.23
2022-11-05T17:55:19.125Z,18.40
2022-11-05T17:57:50.461Z,15.83
2022-11-05T18:00:21.854Z,11.83
2022-11-05T18:02:49.809Z,16.47
2022-11-05T18:05:22.069Z,14.83
2022-11-05T18:07:49.122Z,15.30
2022-11-05T18:10:16.171Z,14.57
2022-11-05T18:12:43.561Z,20.57
2022-11-05T18:15:10.537Z,15.80
2022-11-05T18:17:37.515Z,13.33
2022-11-05T18:20:11.685Z,23.87
2022-11-05T18:22:42.083Z,13.30
2022-11-05T18:25:11.067Z,22.00
2022-11-05T18:27:37.952Z,23.57
2022-11-05T18:30:05.369Z,18.17
2022-11-05T18:32:32.457Z,18.47
2022-11-05T18:34:59.214Z,19.53
2022-11-05T18:37:26.043Z,18.87
2022-11-05T18:39:53.576Z,21.43
2022-11-05T18:42:21.351Z,19.53
2022-11-05T18:44:48.879Z,18.50
2022-11-05T18:47:15.904Z,20.33
2022-11-05T18:49:42.676Z,19.40
2022-11-05T18:52:09.511Z,18.00
2022-11-05T18:54:36.414Z,21.33
2022-11-05T18:57:03.225Z,19.43
2022-11-05T18:59:37.800Z,16.60
2022-11-05T19:02:06.785Z,21.13
2022-11-05T19:04:36.034Z,20.43
2022-11-05T19:07:05.371Z,25.67
2022-11-05T19:09:37.512Z,24.00
2022-11-05T19:12:05.987Z,22.43
2022-11-05T19:14:32.777Z,18.70
2022-11-05T19:17:00.431Z,28.97
2022-11-05T19:19:28.077Z,23.07
2022-11-05T19:21:54.839Z,25.03
2022-11-05T19:24:21.754Z,19.90
2022-11-05T19:26:48.706Z,20.27
2022-11-05T19:29:15.405Z,25.50
2022-11-05T19:31:42.323Z,24.23
2022-11-05T19:34:09.261Z,17.00
2022-11-05T19:36:35.975Z,21.77
2022-11-05T19:39:09.243Z,21.17
2022-11-05T19:41:36.238Z,29.93
2022-11-05T19:44:03.442Z,16.60
2022-11-05T19:46:31.432Z,26.30
2022-11-05T19:49:00.357Z,23.50
2022-11-05T19:51:30.345Z,21.13
2022-11-05T19:54:00.006Z,35.80
2022-11-05T19:56:30.035Z,31.98
2022-11-05T19:58:57.744Z,28.95
2022-11-05T20:01:26.421Z,23.27
2022-11-05T20:03:54.619Z,27.77
2022-11-05T20:06:28.830Z,32.00
2022-11-05T20:11:49.520Z,26.37
2022-11-05T20:14:16.258Z,22.97
2022-11-05T20:16:45.150Z,24.57
2022-11-05T20:19:15.400Z,32.10
2022-11-05T20:24:10.666Z,34.37
2022-11-05T20:26:37.518Z,33.77
2022-11-05T20:29:04.298Z,30.60
2022-11-05T20:31:31.093Z,28.77
2022-11-05T20:33:58.091Z,29.70
2022-11-05T20:36:26.771Z,30.67
2022-11-05T20:38:58.483Z,35.53
2022-11-05T20:41:26.359Z,31.27
2022-11-05T20:43:53.506Z,33.60
2022-11-05T20:46:22.202Z,34.57
2022-11-05T20:48:49.571Z,35.37
2022-11-05T20:51:19.370Z,31.83
2022-11-05T20:53:47.161Z,30.67
2022-11-05T20:56:34.902Z,38.53
2022-11-05T20:59:02.681Z,38.87
2022-11-05T21:01:33.102Z,38.27
2022-11-05T21:04:00.022Z,41.23
2022-11-05T21:06:26.994Z,31.90
2022-11-05T21:08:54.043Z,36.53
2022-11-05T21:11:20.817Z,34.63
2022-11-05T21:13:48.257Z,30.40
2022-11-05T21:16:18.444Z,36.67
2022-11-05T21:18:46.219Z,30.57
2022-11-05T21:21:16.474Z,29.73
2022-11-05T21:26:12.781Z,28.47
2022-11-05T21:28:41.170Z,36.38
2022-11-05T21:31:08.032Z,30.43
2022-11-05T21:33:36.207Z,36.60
2022-11-05T21:36:08.993Z,30.47
2022-11-05T21:38:36.109Z,25.77
2022-11-05T21:41:03.996Z,27.73
2022-11-05T21:43:31.434Z,27.30
2022-11-05T21:46:01.917Z,19.60
2022-11-05T21:48:29.146Z,21.53
2022-11-05T21:51:14.586Z,35.77
2022-11-05T21:54:00.120Z,29.53
2022-11-05T21:56:46.260Z,35.07
2022-11-05T21:59:35.091Z,44.57
2022-11-05T22:02:02.705Z,52.97
2022-11-05T22:04:38.086Z,44.63
2022-11-05T22:07:05.884Z,37.87
2022-11-05T22:09:33.338Z,35.90
2022-11-05T22:12:00.688Z,41.20
2022-11-05T22:14:28.480Z,29.07
2022-11-05T22:16:56.235Z,36.47
2022-11-05T22:19:23.495Z,33.10
2022-11-05T22:21:50.466Z,42.23
2022-11-05T22:24:17.472Z,35.40
2022-11-05T22:26:44.424Z,38.53
2022-11-05T22:29:12.125Z,31.10
2022-11-05T22:31:39.127Z,44.43
2022-11-05T22:34:08.167Z,35.73
2022-11-05T22:36:35.566Z,48.00
2022-11-05T22:39:03.743Z,37.97
2022-11-05T22:41:31.119Z,32.00
2022-11-05T22:43:58.362Z,38.27
2022-11-05T22:46:26.843Z,36.10
2022-11-05T22:48:54.119Z,37.33
2022-11-05T22:51:32.933Z,31.97
2022-11-05T22:54:00.945Z,34.03
2022-11-05T22:56:30.587Z,32.17
2022-11-05T22:58:58.500Z,29.98
2022-11-05T23:01:26.321Z,38.33
2022-11-05T23:03:54.991Z,34.97
2022-11-05T23:06:45.371Z,42.37
2022-11-05T23:09:37.260Z,45.73
2022-11-05T23:12:07.862Z,38.00
2022-11-05T23:14:36.632Z,38.67
2022-11-05T23:17:22.766Z,32.57
2022-11-05T23:20:08.157Z,36.57
2022-11-05T23:22:53.737Z,39.90
2022-11-05T23:25:22.280Z,39.43
2022-11-05T23:27:54.482Z,35.37
2022-11-05T23:30:23.640Z,34.93
2022-11-05T23:32:51.468Z,31.27
2022-11-05T23:35:18.377Z,26.13
2022-11-05T23:38:04.139Z,31.07
2022-11-05T23:40:52.399Z,34.60
2022-11-05T23:43:37.892Z,34.63
2022-11-05T23:46:25.947Z,29.23
2022-11-05T23:48:52.645Z,28.73
2022-11-05T23:51:19.334Z,30.30
2022-11-05T23:53:46.085Z,31.17
2022-11-05T23:56:15.306Z,22.70
2022-11-05T23:58:42.814Z,26.80
